createdAt,value
2018-07-07T00:08:05.111Z,17.80
2018-07-07T05:00:06.411Z,17.90
2018-07-07T05:03:15.249Z,18.00
2018-07-07T05:09:56.841Z,18.20
2018-07-07T05:16:26.880Z,18.40
2018-07-07T05:19:00.264Z,18.50
2018-07-07T05:21:33.104Z,18.40
2018-07-07T05:24:07.860Z,18.70
2018-07-07T05:26:39.438Z,18.80
2018-07-07T05:29:08.202Z,19.00
2018-07-07T05:31:38.867Z,19.00
2018-07-07T05:34:07.324Z,19.40
2018-07-07T05:36:37.226Z,19.50
2018-07-07T05:39:06.397Z,19.60
2018-07-07T05:41:35.535Z,19.70
2018-07-07T05:49:02.727Z,19.80
2018-07-07T05:54:10.053Z,19.90
2018-07-07T05:56:42.843Z,19.90
2018-07-07T05:59:13.841Z,19.90
2018-07-07T06:02:00.186Z,20.00
2018-07-07T06:04:32.411Z,20.10
2018-07-07T06:10:20.050Z,20.40
2018-07-07T06:12:54.097Z,20.50
2018-07-07T06:17:57.274Z,20.40
2018-07-07T06:20:26.110Z,20.50
2018-07-07T06:22:56.953Z,20.30
2018-07-07T06:31:18.372Z,20.30
2018-07-07T06:33:49.213Z,20.30
2018-07-07T06:36:24.071Z,20.10
2018-07-07T06:43:19.594Z,20.00
2018-07-07T06:49:42.695Z,20.20
2018-07-07T06:58:08.156Z,20.30
2018-07-07T07:00:45.186Z,20.30
2018-07-07T07:06:57.444Z,20.30
2018-07-07T07:18:50.547Z,20.30
2018-07-07T07:21:26.284Z,20.30
2018-07-07T07:29:24.129Z,20.90
2018-07-07T07:43:45.031Z,21.00
2018-07-07T07:56:22.943Z,20.90
2018-07-07T07:58:54.968Z,21.00
2018-07-07T08:01:32.627Z,21.20
2018-07-07T08:04:03.974Z,21.30
2018-07-07T08:06:32.205Z,21.40
2018-07-07T08:09:00.524Z,21.30
2018-07-07T08:11:29.754Z,21.30
2018-07-07T08:13:57.947Z,21.70
2018-07-07T08:16:26.170Z,21.90
2018-07-07T08:18:55.493Z,21.90
2018-07-07T08:21:24.445Z,22.20
2018-07-07T08:23:53.587Z,22.40
2018-07-07T08:26:21.840Z,22.40
2018-07-07T08:28:50.766Z,22.40
2018-07-07T08:31:18.963Z,22.60
2018-07-07T08:33:47.172Z,23.50
2018-07-07T08:36:15.481Z,23.00
2018-07-07T08:38:44.934Z,23.20
2018-07-07T08:43:58.861Z,23.00
2018-07-07T08:46:34.197Z,22.90
2018-07-07T08:49:04.504Z,22.80
2018-07-07T08:51:39.224Z,22.70
2018-07-07T08:54:13.826Z,22.50
2018-07-07T08:56:53.431Z,22.50
2018-07-07T08:59:24.070Z,22.40
2018-07-07T09:01:53.066Z,22.40
2018-07-07T09:04:21.285Z,22.20
2018-07-07T09:06:49.540Z,22.20
2018-07-07T09:09:17.783Z,22.30
2018-07-07T09:11:46.023Z,22.40
2018-07-07T09:14:14.264Z,22.60
2018-07-07T09:16:42.519Z,22.60
2018-07-07T09:19:10.755Z,22.70
2018-07-07T09:24:19.713Z,22.70
2018-07-07T09:26:59.709Z,22.80
2018-07-07T09:32:12.139Z,22.90
2018-07-07T09:34:42.050Z,23.00
2018-07-07T09:37:12.191Z,23.10
2018-07-07T09:39:48.144Z,23.30
2018-07-07T09:42:32.829Z,23.50
2018-07-07T09:45:06.463Z,23.70
2018-07-07T09:47:36.143Z,24.00
2018-07-07T09:50:12.930Z,24.30
2018-07-07T09:52:43.652Z,24.40
2018-07-07T09:55:12.998Z,24.60
2018-07-07T09:57:48.615Z,24.50
2018-07-07T10:00:27.546Z,24.70
2018-07-07T10:02:59.899Z,24.80
2018-07-07T10:07:58.639Z,24.90
2018-07-07T10:10:33.274Z,24.90
2018-07-07T10:13:04.450Z,24.60
2018-07-07T10:23:11.022Z,24.70
2018-07-07T10:25:39.379Z,24.60
2018-07-07T10:28:07.857Z,24.60
2018-07-07T10:30:36.420Z,24.70
2018-07-07T10:33:06.008Z,24.80
2018-07-07T10:35:35.507Z,24.90
2018-07-07T10:38:03.952Z,24.90
2018-07-07T10:40:32.288Z,24.90
2018-07-07T10:43:00.611Z,25.00
2018-07-07T10:45:47.368Z,24.80
2018-07-07T10:51:00.817Z,25.00
2018-07-07T10:53:30.272Z,25.10
2018-07-07T10:56:08.144Z,25.10
2018-07-07T10:59:12.275Z,25.00
2018-07-07T11:01:47.390Z,24.90
2018-07-07T11:04:18.995Z,24.90
2018-07-07T11:09:33.105Z,24.60
2018-07-07T11:12:07.386Z,24.60
2018-07-07T11:14:42.157Z,24.50
2018-07-07T11:17:12.007Z,24.60
2018-07-07T11:19:40.456Z,24.80
2018-07-07T11:22:14.353Z,25.00
2018-07-07T11:24:53.297Z,25.10
2018-07-07T11:27:24.679Z,25.10
2018-07-07T11:30:01.207Z,25.00
2018-07-07T11:32:35.534Z,25.00
2018-07-07T11:35:07.656Z,24.90
2018-07-07T11:37:43.239Z,24.90
2018-07-07T11:40:16.736Z,24.70
2018-07-07T11:42:57.718Z,24.70
2018-07-07T11:45:30.316Z,24.80
2018-07-07T11:50:34.395Z,24.90
2018-07-07T11:53:03.666Z,25.00
2018-07-07T11:55:32.558Z,25.20
2018-07-07T12:00:32.613Z,25.20
2018-07-07T12:03:01.433Z,25.20
2018-07-07T12:05:31.317Z,25.20
2018-07-07T12:08:13.783Z,25.30
2018-07-07T12:10:35.058Z,25.40
2018-07-07T12:15:37.600Z,25.20
2018-07-07T12:20:49.560Z,25.50
2018-07-07T12:23:33.736Z,25.60
2018-07-07T12:28:48.614Z,25.60
2018-07-07T12:31:26.817Z,25.60
2018-07-07T12:34:02.820Z,25.40
2018-07-07T12:36:48.126Z,25.30
2018-07-07T12:42:09.154Z,25.20
2018-07-07T12:44:50.854Z,25.10
2018-07-07T12:47:37.501Z,25.20
2018-07-07T12:52:36.936Z,25.30
2018-07-07T12:57:33.626Z,25.40
2018-07-07T13:00:02.297Z,25.50
2018-07-07T13:02:35.068Z,25.30
2018-07-07T13:05:09.302Z,25.30
2018-07-07T13:07:43.085Z,25.30
2018-07-07T13:10:12.843Z,25.40
2018-07-07T13:22:54.791Z,25.90
2018-07-07T13:25:25.484Z,25.70
2018-07-07T13:27:57.977Z,25.70
2018-07-07T13:35:28.714Z,26.00
2018-07-07T13:37:58.432Z,26.10
2018-07-07T13:40:28.359Z,26.10
2018-07-07T13:43:02.033Z,26.10
2018-07-07T13:45:32.028Z,26.20
2018-07-07T13:48:03.860Z,26.10
2018-07-07T13:50:34.422Z,26.10
2018-07-07T13:53:05.509Z,25.80
2018-07-07T13:55:38.470Z,26.00
2018-07-07T13:58:09.810Z,26.00
2018-07-07T14:01:01.281Z,26.00
2018-07-07T14:03:35.705Z,26.00
2018-07-07T14:06:19.108Z,26.00
2018-07-07T14:08:58.265Z,26.10
2018-07-07T14:11:35.354Z,26.20
2018-07-07T14:14:20.289Z,26.00
2018-07-07T14:19:32.881Z,26.00
2018-07-07T14:27:27.680Z,26.00
2018-07-07T14:30:15.780Z,25.90
2018-07-07T14:33:05.928Z,25.90
2018-07-07T14:35:44.669Z,25.90
2018-07-07T14:41:18.148Z,26.00
2018-07-07T14:51:57.610Z,26.10
2018-07-07T15:02:16.417Z,25.70
2018-07-07T15:04:50.316Z,25.60
2018-07-07T15:09:56.915Z,25.90
2018-07-07T15:12:25.133Z,26.10
2018-07-07T15:14:54.269Z,25.90
2018-07-07T15:17:29.928Z,25.80
2018-07-07T15:20:07.460Z,26.00
2018-07-07T15:22:42.517Z,26.10
2018-07-07T15:25:18.590Z,26.20
2018-07-07T15:28:03.769Z,26.20
2018-07-07T15:30:42.667Z,26.30
2018-07-07T15:33:12.042Z,26.30
2018-07-07T15:35:40.487Z,26.10
2018-07-07T15:38:09.077Z,26.10
2018-07-07T15:40:37.561Z,26.10
2018-07-07T15:43:05.718Z,26.10
2018-07-07T15:45:33.889Z,26.10
2018-07-07T15:48:02.102Z,26.10
2018-07-07T15:50:30.215Z,26.20
2018-07-07T15:52:58.658Z,26.20
2018-07-07T15:55:26.847Z,26.30
2018-07-07T15:57:55.022Z,26.50
2018-07-07T16:00:23.181Z,26.50
2018-07-07T16:02:51.463Z,26.40
2018-07-07T16:05:19.742Z,26.40
2018-07-07T16:07:47.961Z,26.30
2018-07-07T16:12:44.138Z,26.20
2018-07-07T16:15:12.375Z,26.20
2018-07-07T16:17:40.566Z,26.20
2018-07-07T16:20:08.786Z,26.20
2018-07-07T16:22:37.130Z,26.20
2018-07-07T16:25:05.380Z,26.10
2018-07-07T16:27:33.616Z,26.10
2018-07-07T16:30:01.878Z,26.00
2018-07-07T16:32:30.142Z,26.10
2018-07-07T16:34:58.449Z,26.10
2018-07-07T16:37:26.730Z,26.10
2018-07-07T16:39:55.014Z,26.10
2018-07-07T16:42:23.435Z,26.10
2018-07-07T16:44:51.668Z,26.10
2018-07-07T16:47:19.898Z,26.10
2018-07-07T16:49:48.172Z,26.00
2018-07-07T16:52:16.450Z,25.90
2018-07-07T16:54:44.715Z,25.90
2018-07-07T16:57:14.551Z,25.80
2018-07-07T16:59:42.929Z,25.80
2018-07-07T17:02:11.219Z,26.50
2018-07-07T17:04:39.430Z,25.80
2018-07-07T17:07:07.648Z,25.90
2018-07-07T17:09:35.890Z,25.70
2018-07-07T17:14:32.146Z,25.90
2018-07-07T17:17:00.459Z,25.80
2018-07-07T17:19:28.753Z,25.80
2018-07-07T17:21:57.150Z,25.80
2018-07-07T17:24:27.443Z,25.90
2018-07-07T17:26:56.088Z,25.80
2018-07-07T17:29:24.392Z,25.80
2018-07-07T17:31:52.991Z,25.70
2018-07-07T17:34:21.250Z,25.60
2018-07-07T17:36:49.553Z,25.50
2018-07-07T17:39:17.829Z,25.50
2018-07-07T17:41:46.934Z,25.40
2018-07-07T17:44:15.623Z,25.50
2018-07-07T17:46:43.873Z,25.40
2018-07-07T17:49:12.341Z,25.30
2018-07-07T17:51:41.314Z,25.30
2018-07-07T17:54:09.628Z,25.20
2018-07-07T17:56:37.858Z,25.20
2018-07-07T17:59:06.105Z,25.20
2018-07-07T18:01:35.008Z,25.20
2018-07-07T18:04:03.318Z,25.10
2018-07-07T18:06:31.590Z,25.10
2018-07-07T18:08:59.865Z,25.10
2018-07-07T18:11:28.168Z,25.00
2018-07-07T18:16:24.394Z,25.00
2018-07-07T18:18:52.639Z,25.00
2018-07-07T18:21:20.921Z,25.00
2018-07-07T18:23:49.131Z,25.00
2018-07-07T18:26:17.344Z,24.90
2018-07-07T18:28:45.599Z,24.90
2018-07-07T18:31:14.045Z,24.70
2018-07-07T18:33:42.324Z,24.60
2018-07-07T18:36:10.582Z,24.60
2018-07-07T18:38:38.850Z,24.60
2018-07-07T18:41:07.102Z,24.50
2018-07-07T18:43:35.350Z,24.50
2018-07-07T18:46:03.610Z,24.50
2018-07-07T18:48:31.847Z,24.50
2018-07-07T18:51:00.158Z,24.40
2018-07-07T18:53:28.395Z,24.40
2018-07-07T18:55:56.994Z,24.40
2018-07-07T18:58:26.242Z,24.20
2018-07-07T19:00:54.456Z,23.80
2018-07-07T19:03:22.685Z,24.10
2018-07-07T19:05:50.847Z,24.00
2018-07-07T19:08:19.035Z,23.90
2018-07-07T19:10:47.197Z,23.30
2018-07-07T19:13:15.404Z,23.20
2018-07-07T19:15:46.093Z,23.20
2018-07-07T19:18:14.482Z,23.00
2018-07-07T19:23:21.390Z,23.00
2018-07-07T19:25:55.274Z,22.80
2018-07-07T19:28:23.472Z,22.70
2018-07-07T19:30:51.612Z,22.50
2018-07-07T19:33:25.186Z,22.40
2018-07-07T19:35:58.661Z,22.10
2018-07-07T19:38:26.834Z,21.90
2018-07-07T19:40:55.015Z,21.80
2018-07-07T19:43:23.271Z,21.60
2018-07-07T19:45:51.430Z,21.70
2018-07-07T19:48:19.626Z,21.30
2018-07-07T19:50:47.801Z,21.20
2018-07-07T19:53:15.959Z,21.10
2018-07-07T19:55:44.247Z,21.10
2018-07-07T19:58:12.441Z,21.00
2018-07-07T20:00:40.603Z,21.00
2018-07-07T20:03:09.179Z,21.00
2018-07-07T20:05:37.422Z,20.90
2018-07-07T20:08:05.654Z,20.90
2018-07-07T20:10:33.900Z,20.80
2018-07-07T20:13:02.126Z,20.80
2018-07-07T20:18:05.841Z,20.70
2018-07-07T20:20:39.526Z,20.80
2018-07-07T20:23:08.993Z,20.80
2018-07-07T20:25:37.215Z,20.70
2018-07-07T20:28:11.074Z,20.70
2018-07-07T20:30:39.313Z,20.60
2018-07-07T20:33:07.809Z,20.60
2018-07-07T20:35:36.049Z,20.50
2018-07-07T20:38:04.267Z,20.50
2018-07-07T20:40:32.514Z,20.50
2018-07-07T20:43:00.749Z,20.50
2018-07-07T20:45:28.949Z,20.50
2018-07-07T20:47:57.167Z,20.40
2018-07-07T20:50:25.361Z,20.30
2018-07-07T20:52:53.586Z,20.20
2018-07-07T20:55:21.797Z,20.00
2018-07-07T20:57:50.010Z,19.90
2018-07-07T21:00:18.230Z,20.00
2018-07-07T21:02:46.438Z,19.90
2018-07-07T21:05:14.637Z,19.90
2018-07-07T21:07:42.854Z,19.80
2018-07-07T21:10:11.080Z,19.80
2018-07-07T21:12:39.345Z,19.80
2018-07-07T21:15:07.554Z,19.90
2018-07-07T21:17:35.775Z,19.90
2018-07-07T21:20:04.104Z,19.90
2018-07-07T21:22:32.335Z,19.80
2018-07-07T21:25:06.843Z,19.90
2018-07-07T21:27:35.055Z,19.90
2018-07-07T21:30:03.278Z,20.00
2018-07-07T21:32:31.509Z,19.90
2018-07-07T21:34:59.737Z,19.90
2018-07-07T21:37:27.947Z,19.80
2018-07-07T21:39:56.136Z,19.80
2018-07-07T21:42:24.350Z,19.80
2018-07-07T21:44:52.799Z,19.80
2018-07-07T21:47:21.042Z,19.80
2018-07-07T21:49:49.311Z,19.90
2018-07-07T21:52:17.582Z,19.70
2018-07-07T21:54:45.788Z,19.70
2018-07-07T21:57:19.281Z,19.70
2018-07-07T21:59:47.487Z,19.60
2018-07-07T22:02:21.021Z,19.60
2018-07-07T22:04:54.490Z,19.50
2018-07-07T22:07:28.101Z,19.50
2018-07-07T22:09:56.271Z,19.40
2018-07-07T22:12:24.429Z,19.40
2018-07-07T22:14:52.575Z,19.40
2018-07-07T22:17:20.743Z,19.40
2018-07-07T22:22:54.305Z,19.20
2018-07-07T22:25:22.496Z,19.20
2018-07-07T22:27:50.668Z,19.20
2018-07-07T22:30:18.852Z,19.20
2018-07-07T22:32:47.052Z,19.10
2018-07-07T22:35:20.548Z,19.10
2018-07-07T22:37:48.736Z,19.10
2018-07-07T22:40:16.913Z,19.20
2018-07-07T22:42:45.069Z,19.10
2018-07-07T22:45:13.293Z,19.00
2018-07-07T22:47:41.471Z,18.90
2018-07-07T22:50:09.646Z,18.90
2018-07-07T22:52:37.859Z,18.90
2018-07-07T22:55:06.035Z,18.90
2018-07-07T22:57:34.222Z,18.80
2018-07-07T23:00:02.423Z,18.70
2018-07-07T23:02:30.581Z,18.80
2018-07-07T23:04:58.830Z,18.80
2018-07-07T23:07:27.060Z,18.60
2018-07-07T23:09:55.309Z,18.70
2018-07-07T23:12:23.538Z,18.60
2018-07-07T23:14:51.778Z,18.50
2018-07-07T23:17:20.051Z,18.40
2018-07-07T23:19:48.282Z,18.40
2018-07-07T23:22:28.363Z,18.40
2018-07-07T23:24:56.581Z,18.30
2018-07-07T23:27:24.802Z,18.20
2018-07-07T23:29:53.012Z,18.20
2018-07-07T23:32:21.298Z,18.10
2018-07-07T23:34:49.509Z,18.20
2018-07-07T23:37:17.726Z,18.10
2018-07-07T23:39:45.967Z,18.10
2018-07-07T23:42:14.210Z,18.00
2018-07-07T23:44:42.462Z,18.00
2018-07-07T23:47:10.722Z,17.90
2018-07-07T23:49:38.952Z,17.90
2018-07-07T23:52:07.200Z,18.00
2018-07-07T23:54:35.433Z,18.00
2018-07-07T23:57:03.647Z,18.00
2018-07-07T23:59:31.879Z,18.00
